Bewolking Meer informatie Parkstad Weather Satellite


Neerslagradar Meer informatie Parkstad Rain Snow Radar


Onweersbuien Meer informatie Parkstad Lighntning


24/7 Weercamera Meer informatie Parkstad Weathercam


Natuurbrandrisico
CBI






Het weer levert geen direct gevaar op in Parkstad.    Er zijn geen waarschuwingen afgegeven voor Parkstad (045)

METAR rapporten vliegvelden

   
EHBK - Beek Nederland
Gewijzigd: 21-08-2019 09:25
Helder  
Helder  
   Wind: varieert 3.7 km/h
Wind: varieert 3.7 km/h
Temperatuur: 15°C
Dauwpunt: 11°C
Vochtigheid: 77%
Barometer: 1029 hPa
Satelliet beelden: Helder
Zicht: meer dan 10 km
Bewolking: Helder
EHBK 210725Z AUTO VRB02KT 9999 NCD 15/11 Q1029 NOSIG
EHBK - Maastricht Nederland
Gewijzigd: 21-08-2019 09:25
Helder  
Helder  
   Wind: varieert 3.7 km/h
Wind: varieert 3.7 km/h
Temperatuur: 15°C
Dauwpunt: 11°C
Vochtigheid: 77%
Barometer: 1029 hPa
Satelliet beelden: Helder
Zicht: meer dan 10 km
Bewolking: Helder
EHBK 210725Z AUTO VRB02KT 9999 NCD 15/11 Q1029 NOSIG
EBLG - Liège België
Gewijzigd: 21-08-2019 09:20
Helder  
Helder  
   Wind: varieert 3.7 km/h
Wind: varieert 3.7 km/h
Temperatuur: 15°C
Dauwpunt: 12°C
Vochtigheid: 82%
Barometer: 1029 hPa
Zicht: meer dan 10 km
Bewolking: Helder
EBLG 210720Z VRB02KT CAVOK 15/12 Q1029 NOSIG
EDDK - Köln/Bonn Duitsland
Gewijzigd: 21-08-2019 09:20
Helder  
Helder  
   Wind: ZO 5.6 km/h
Wind: ZO 5.6 km/h
Temperatuur: 15°C
Dauwpunt: 11°C
Vochtigheid: 77%
Barometer: 1029 hPa
Zicht: meer dan 10 km
Bewolking: Helder
EDDK 210720Z 14003KT 080V190 CAVOK 15/11 Q1029 NOSIG
EDDL - Düsseldorf Duitsland
Gewijzigd: 21-08-2019 09:20
Helder  
Helder  
   Wind: varieert 1.9 km/h
Wind: varieert 1.9 km/h
Temperatuur: 18°C
Dauwpunt: 12°C
Vochtigheid: 68%
Barometer: 1029 hPa
Zicht: meer dan 10 km
Bewolking: Helder
EDDL 210720Z VRB01KT CAVOK 18/12 Q1029 NOSIG
EHEH - Eindhoven Nederland
Gewijzigd: 21-08-2019 09:25
Helder  
Helder  
   Wind: ZZW 9.3 km/h
Wind: ZZW 9.3 km/h
Temperatuur: 16°C
Dauwpunt: 12°C
Vochtigheid: 77%
Barometer: 1029 hPa
Satelliet beelden: Helder
Zicht: meer dan 10 km
Bewolking: Helder
EHEH 210725Z AUTO 21005KT 170V260 9999 NCD 16/12 Q1029 BLU 19005KT CAVOK
ELLX - Luxemburg Luxemburg
Gewijzigd: 21-08-2019 09:20
Helder  
Helder  
   Wind: NO 11.1 km/h
Wind: NO 11.1 km/h
Temperatuur: 15°C
Dauwpunt: 11°C
Vochtigheid: 77%
Barometer: 1029 hPa
Zicht: meer dan 10 km
Bewolking: Helder
ELLX 210720Z 04006KT CAVOK 15/11 Q1029 NOSIG
EGLL - London England
Gewijzigd: 21-08-2019 09:20
Helder  
Helder  
   Wind: ZZO 7.4 km/h
Wind: ZZO 7.4 km/h
Temperatuur: 14°C
Dauwpunt: 11°C
Vochtigheid: 82%
Barometer: 1028 hPa
Satelliet beelden: Helder
Zicht: meer dan 10 km
Bewolking: Helder
EGLL 210720Z AUTO 16004KT 100V210 9999 NCD 14/11 Q1028 NOSIG
EBAW - Antwerpen België
Gewijzigd: 21-08-2019 09:20
Helder  
Helder  
   Wind: ZZW 5.6 km/h
Wind: ZZW 5.6 km/h
Temperatuur: 16°C
Dauwpunt: 12°C
Vochtigheid: 77%
Barometer: 1029 hPa
Zicht: meer dan 10 km
Bewolking: Helder
EBAW 210720Z 20003KT 140V250 CAVOK 16/12 Q1029 NOSIG
EBOS - Oostende België
Gewijzigd: 21-08-2019 09:20
Gedeeltelijk bewolkt  
Gedeeltelijk bewolkt  
   Wind: Zuiden 5.6 km/h
Wind: Zuiden 5.6 km/h
Temperatuur: 14°C
Dauwpunt: 12°C
Vochtigheid: 88%
Barometer: 1028 hPa
Satelliet beelden: Gedeeltelijk bewolkt
Zicht: 9 km
Bewolking: Gedeeltelijk bewolkt
EBOS 210720Z 19003KT 160V220 9000 NSC 14/12 Q1028 NOSIG
LEAL - La Nucia Spanje
Gewijzigd: 21-08-2019 09:30
Grotendeels bewolkt  
Grotendeels bewolkt  
   Wind: NO 14.8 km/h
Wind: NO 14.8 km/h
Temperatuur: 24°C
Dauwpunt: 21°C
Vochtigheid: 83%
Barometer: 1019 hPa
Satelliet beelden: Grotendeels bewolkt
Zicht: meer dan 10 km
Bewolking: Licht bewolkt 610 m,
Grotendeels bewolkt 732 m
LEAL 210730Z 05008KT 020V080 9999 FEW020 BKN024 24/21 Q1019 NOSIG
TNCA - Oranjestad Aruba
Gewijzigd: 21-08-2019 09:00
Licht bewolkt  
Licht bewolkt  
   Wind: Oosten 25.9 km/h
Wind: Oosten 25.9 km/h
Temperatuur: 28°C
Gevoelstemperatuur: 32°C
Dauwpunt: 24°C
Vochtigheid: 79%
Barometer: 1013 hPa
Satelliet beelden: Licht bewolkt
Zicht: meer dan 10 km
Bewolking: Licht bewolkt 549 m
TNCA 210700Z 09014KT 9999 FEW018 28/24 Q1013 NOSIG
TNCC - Willemstad Curacao
Gewijzigd: 21-08-2019 09:00
Licht bewolkt  
Licht bewolkt  
   Wind: OZO 14.8 km/h
Wind: OZO 14.8 km/h
Temperatuur: 28°C
Gevoelstemperatuur: 31°C
Dauwpunt: 23°C
Vochtigheid: 74%
Barometer: 1013 hPa
Satelliet beelden: Licht bewolkt
Zicht: meer dan 10 km
Bewolking: Licht bewolkt 518 m
TNCC 210700Z 12008KT 9999 FEW017 28/23 Q1013 NOSIG
MTPP - Port au Prince Haitië
Gewijzigd: 21-08-2019 08:59
Licht onweer, Neerslag  
Licht onweer, Neerslag  
   Wind: OZO 7.4 km/h
Wind: OZO 7.4 km/h
Temperatuur: 25°C
Dauwpunt: 23°C
Vochtigheid: 89%
Barometer: 1015 hPa
Zicht: 7 km
MTPP 210659Z AUTO 11004KT 7000 ////// -TSRA 25/23 Q1015 A2998 NOSIG
ENVA - Trondheim Noorwegen
Gewijzigd: 21-08-2019 09:20
Grotendeels bewolkt  
Grotendeels bewolkt  
   Wind: WZW 18.5 km/h
Wind: WZW 18.5 km/h
Temperatuur: 13°C
Dauwpunt: 9°C
Vochtigheid: 77%
Barometer: 1018 hPa
Satelliet beelden: Grotendeels bewolkt
Zicht: meer dan 10 km
Bewolking: Licht bewolkt 1372 m,
Gedeeltelijk bewolkt 1829 m,
Grotendeels bewolkt 3048 m
ENVA 210720Z 25010KT 9999 FEW045 SCT060 BKN100 13/09 Q1018 TEMPO SHRA RMK WIND 670FT 26011KT
ENBO - Bodø Noorwegen
Gewijzigd: 21-08-2019 09:20
Nabijgelegen buien, Grotendeels bewolkt  
Nabijgelegen buien, Grotendeels bewolkt  
   Wind: Zuiden 16.7 km/h
Wind: Zuiden 16.7 km/h
Temperatuur: 14°C
Dauwpunt: 9°C
Vochtigheid: 72%
Barometer: 1011 hPa
Satelliet beelden: Grotendeels bewolkt
Zicht: meer dan 10 km
Bewolking: Licht bewolkt 610 m,
Gedeeltelijk bewolkt 914 m,
Grotendeels bewolkt 1372 m
ENBO 210720Z 18009KT 9999 VCSH FEW020CB SCT030 BKN045 14/09 Q1011 TEMPO 22020G35KT SHRA BKN020CB
ETNG - Geilenkirchen Duitsland
Gewijzigd: 21-08-2019 08:50
Licht bewolkt  
Licht bewolkt  
   Wind: ZZO 1.9 km/h
Wind: ZZO 1.9 km/h
Temperatuur: 17°C
Dauwpunt: 12°C
Vochtigheid: 73%
Barometer: 1029 hPa
Satelliet beelden: Licht bewolkt
Zicht: meer dan 10 km
Bewolking: Licht bewolkt 1067 m
ETNG 210650Z 15001KT 9999 FEW035 17/12 Q1029 NOSIG
 

Script ontwikkeld door  Saratoga-weather.org Aangepast voor de template door  Weerstation Leuven

U vindt ons ook hier:

Het Weer Aktueel

WOW Nederland KNMI

Vereniging voor Weerkunde en Klimatologie

UK Met Office Weather Observation Website (WOW)

WeatherCloud

Weather Underground

Awekas

Weatherlink IP

HAMweather, WeatherForYou, PWS Weather

Citizen Weather Observer Program (CWOP)

Apparatuur in gebruik:

Hardwareleverancier
Weerhuisje

Weerstation
Vantage Pro2+ UV

Weercomputer's
alix3d2 & wl330n

Weerprogramma's
Smartbedded

Satelliet NOAA's
WRX137 & KX137

Satelliet Eumetsat
Ayecka SR1 & Triax

Bliksemdetectie
Boltek StormTracker

Webleverancier
F-Service

Weerhuisje

Vantage Pro2+ UV

alix3d2 & wl330n

Smartbedded

WRX137 & KX137

Ayecka SR1 & Triax

Boltek StormTracker

F-Service